Atlantica — WDF3913 — position and weather

sailwx.info

Track history (hours):
 
Tides and Currents Weather Stations Pressure Air Temp Water Temp Dewpoint Dewpoint Depression Visibility Wind Speed Wind Dir Waves Ship Positions

Atlantica

Owner: Spirit Cruises LLC, New York, NY. More information available from US FCC via Universal Licensing System and Coast Guard Vessel Documentation Center.

Last reported at 2017-Dec-16 04:13 UTC. Time now 2017-Dec-17 19:54 UTC.
Position N 40°45' W 074°01'.

Length 45 m; draft 3.5 m.

Type: Passenger vessel. MMSI: 367445550.

Date/timePositionNaut miles runAvg speedWind from/ knotsBaromVisibWave heightAir tempDewpointWater temp
2017-Dec-16 04:13N 40°45' W 074°01'1 3.5
2017-Dec-16 04:00N 40°46' W 074°01'0 0.0
2017-Dec-16 03:30N 40°46' W 074°01'2 3.6
2017-Dec-16 03:00N 40°44' W 074°01'3 5.2
2017-Dec-16 02:30N 40°41' W 074°02'2 4.5
2017-Dec-16 02:00N 40°42' W 073°60'2 3.9
2017-Dec-16 01:30N 40°44' W 074°01'2 3.1
2017-Dec-16 01:00N 40°46' W 074°01'0 0.0
2017-Dec-16 00:30N 40°46' W 074°01'0 0.0
2017-Dec-16 00:00N 40°46' W 074°01'0 0.0
2017-Dec-15 23:30N 40°46' W 074°01'0 0.0
2017-Dec-15 23:00N 40°46' W 074°01'1 1.5
2017-Dec-15 22:30N 40°45' W 074°01'0 0.0
2017-Dec-15 19:54N 40°45' W 074°01'2 3.8
2017-Dec-15 19:30N 40°43' W 074°01'2 4.0
2017-Dec-15 19:01N 40°42' W 074°02'1 1.7
2017-Dec-15 18:31N 40°42' W 074°01'4 8.2
2017-Dec-15 18:00N 40°46' W 074°00'1 2.1
2017-Dec-15 17:30N 40°45' W 074°01'0 0.0
2017-Dec-15 17:00N 40°45' W 074°01'0 0.0
2017-Dec-15 16:30N 40°45' W 074°01'  
2017-Dec-07 21:32N 40°45' W 074°01'0 0.0
2017-Dec-07 21:30N 40°45' W 074°01'  
Track history (hours):
 
Tides and Currents Weather Stations Pressure Air Temp Water Temp Dewpoint Dewpoint Depression Visibility Wind Speed Wind Dir Waves Ship Positions

Atlantica

Owner: Spirit Cruises LLC, New York, NY. More information available from US FCC via Universal Licensing System and Coast Guard Vessel Documentation Center.

Last reported at 2017-Dec-16 04:13 UTC. Time now 2017-Dec-17 19:54 UTC.
Position N 40°45' W 074°01'.

Length 45 m; draft 3.5 m.

Type: Passenger vessel. MMSI: 367445550.

Date/timePositionNaut miles runAvg speedWind from/ knotsBaromVisibWave heightAir tempDewpointWater temp
2017-Dec-16 04:13N 40°45' W 074°01'1 3.5
2017-Dec-16 04:00N 40°46' W 074°01'0 0.0
2017-Dec-16 03:30N 40°46' W 074°01'2 3.6
2017-Dec-16 03:00N 40°44' W 074°01'3 5.2
2017-Dec-16 02:30N 40°41' W 074°02'2 4.5
2017-Dec-16 02:00N 40°42' W 073°60'2 3.9
2017-Dec-16 01:30N 40°44' W 074°01'2 3.1
2017-Dec-16 01:00N 40°46' W 074°01'0 0.0
2017-Dec-16 00:30N 40°46' W 074°01'0 0.0
2017-Dec-16 00:00N 40°46' W 074°01'0 0.0
2017-Dec-15 23:30N 40°46' W 074°01'0 0.0
2017-Dec-15 23:00N 40°46' W 074°01'1 1.5
2017-Dec-15 22:30N 40°45' W 074°01'0 0.0
2017-Dec-15 19:54N 40°45' W 074°01'2 3.8
2017-Dec-15 19:30N 40°43' W 074°01'2 4.0
2017-Dec-15 19:01N 40°42' W 074°02'1 1.7
2017-Dec-15 18:31N 40°42' W 074°01'4 8.2
2017-Dec-15 18:00N 40°46' W 074°00'1 2.1
2017-Dec-15 17:30N 40°45' W 074°01'0 0.0
2017-Dec-15 17:00N 40°45' W 074°01'0 0.0
2017-Dec-15 16:30N 40°45' W 074°01'  
2017-Dec-07 21:32N 40°45' W 074°01'0 0.0
2017-Dec-07 21:30N 40°45' W 074°01'  

Dump ship's entire track history